Terminal Aerodrome Forecast
Issued by NWS Memphis, TN

Home | Current Version | Previous Version | Text Only | Print | Product List | Glossary On
Versions: 1 2 3 4 5 6 7 8 9 10 11 12 13 14 15 16
093
FTUS44 KMEG 271734
TAFJBR
TAF
KJBR 271734Z 2718/2818 24010KT P6SM VCSH SCT030 BKN250
     FM271900 24009KT P6SM VCTS SCT040CB BKN250
      TEMPO 2720/2724 VRB12G22KT 4SM TSRA BKN030CB
     FM280000 23007KT 6SM SHRA VCTS BKN040CB
     FM280800 24004KT 3SM SHRA BR OVC020
     FM281400 33007KT 5SM BR VCSH OVC030=

USA.gov is the U.S. government's official web portal to all federal, state and local government web resources and services.